Time;durP1;ratioP1;P1;durP2;ratioP2;P2;SDS_P1;SDS_P2;PMS_P1;PMS_P2;Temp;Humidity;BMP_temperature;BMP_pressure;BME280_temperature;BME280_humidity;BME280_pressure;Samples;Min_cycle;Max_cycle;Signal;HPM_P1;HPM_P2
2021/11/22 00:02:08;;;;;;;1.88;0.70;;;15.20;74.30;;;;;;4061661;29;20056;-59
2021/11/22 00:04:30;;;;;;;3.63;1.13;;;15.20;74.10;;;;;;4061212;29;20044;-59
2021/11/22 00:06:53;;;;;;;1.75;0.80;;;15.20;74.00;;;;;;4060428;29;20059;-60
2021/11/22 00:09:15;;;;;;;6.13;0.75;;;15.20;73.90;;;;;;4060915;29;20496;-61
2021/11/22 00:11:37;;;;;;;1.88;0.80;;;15.20;74.30;;;;;;4060587;29;20139;-60
2021/11/22 00:13:59;;;;;;;4.80;0.70;;;15.20;74.90;;;;;;4061281;29;20076;-60
2021/11/22 00:16:22;;;;;;;4.95;0.98;;;15.20;74.90;;;;;;4060586;29;20397;-60
2021/11/22 00:18:45;;;;;;;6.07;1.13;;;15.20;75.30;;;;;;4060387;29;20066;-61
2021/11/22 00:21:07;;;;;;;1.90;0.70;;;15.10;75.40;;;;;;4060702;29;20060;-60
2021/11/22 00:23:29;;;;;;;8.90;1.10;;;15.10;75.50;;;;;;4060852;29;20114;-61
2021/11/22 00:25:51;;;;;;;4.20;0.95;;;15.10;76.00;;;;;;4060511;29;20547;-61
2021/11/22 00:28:13;;;;;;;3.17;0.70;;;15.10;76.20;;;;;;4060979;29;20503;-61
2021/11/22 00:30:53;;;;;;;2.50;0.77;;;15.10;77.50;;;;;;4055362;29;20068;-61
2021/11/22 00:33:20;;;;;;;4.13;0.70;;;15.10;76.70;;;;;;4059754;29;20552;-61
2021/11/22 00:35:53;;;;;;;1.10;1.00;;;15.10;76.80;;;;;;4060635;29;20052;-61
2021/11/22 00:38:16;;;;;;;6.07;0.98;;;15.10;76.80;;;;;;4060324;29;20468;-60
2021/11/22 00:40:39;;;;;;;2.92;0.55;;;15.10;76.00;;;;;;4060689;29;20047;-60
2021/11/22 00:43:02;;;;;;;2.63;0.80;;;15.10;76.10;;;;;;4060318;29;20063;-61
2021/11/22 00:45:26;;;;;;;6.18;1.23;;;15.10;76.10;;;;;;4060355;29;20193;-61
2021/11/22 00:47:49;;;;;;;1.65;0.85;;;15.10;76.20;;;;;;4060852;29;20496;-60
2021/11/22 00:50:13;;;;;;;2.10;1.15;;;15.10;76.20;;;;;;4060230;29;20055;-60
2021/11/22 00:52:35;;;;;;;3.45;0.60;;;15.10;76.90;;;;;;4060558;29;20055;-60
2021/11/22 00:54:58;;;;;;;3.15;0.70;;;15.10;75.70;;;;;;4058959;29;20103;-61
2021/11/22 00:57:20;;;;;;;1.90;0.80;;;15.10;75.80;;;;;;4060532;29;20162;-60
2021/11/22 00:59:42;;;;;;;2.42;0.82;;;15.10;75.80;;;;;;4060213;29;20056;-60
2021/11/22 01:02:04;;;;;;;2.58;0.80;;;15.00;75.70;;;;;;4060234;29;21050;-60
2021/11/22 01:04:27;;;;;;;8.10;1.10;;;15.00;75.70;;;;;;4060258;29;20052;-60
2021/11/22 01:06:51;;;;;;;1.50;0.50;;;15.00;75.80;;;;;;4060106;29;20044;-60
2021/11/22 01:09:13;;;;;;;5.20;0.90;;;15.00;76.90;;;;;;4060026;29;20059;-60
2021/11/22 01:11:35;;;;;;;1.85;0.90;;;15.00;76.30;;;;;;4060411;29;20072;-60
2021/11/22 01:13:59;;;;;;;3.70;0.60;;;15.00;76.20;;;;;;4060693;29;20068;-60
2021/11/22 01:16:22;;;;;;;2.60;0.65;;;15.00;75.40;;;;;;4060140;29;20545;-59
2021/11/22 01:18:44;;;;;;;4.10;1.05;;;15.00;75.70;;;;;;4060201;29;20051;-60
2021/11/22 01:21:09;;;;;;;3.47;0.95;;;15.00;75.60;;;;;;4060198;29;20044;-60
2021/11/22 01:23:33;;;;;;;2.88;0.82;;;14.90;76.20;;;;;;4059492;29;20064;-61
2021/11/22 01:25:55;;;;;;;3.95;1.05;;;14.90;76.20;;;;;;4060509;29;20075;-61
2021/11/22 01:28:17;;;;;;;7.18;1.40;;;14.90;76.60;;;;;;4060213;29;20538;-60
2021/11/22 01:30:39;;;;;;;2.38;0.57;;;14.90;76.50;;;;;;4059521;29;20048;-60
2021/11/22 01:33:01;;;;;;;4.32;0.60;;;14.90;76.70;;;;;;4059750;29;20040;-60
2021/11/22 01:35:24;;;;;;;5.05;0.82;;;14.90;76.80;;;;;;4059878;29;20064;-60
2021/11/22 01:37:47;;;;;;;4.15;0.82;;;14.90;76.70;;;;;;4060184;29;20081;-61
2021/11/22 01:40:13;;;;;;;5.18;0.70;;;14.90;76.60;;;;;;4059871;29;20052;-61
2021/11/22 01:42:37;;;;;;;2.72;0.60;;;14.90;76.40;;;;;;4059924;29;20143;-60
2021/11/22 01:45:00;;;;;;;0.55;0.30;;;14.90;76.70;;;;;;4059792;29;20464;-60
2021/11/22 01:47:22;;;;;;;3.20;0.40;;;14.80;76.60;;;;;;4045763;29;20056;-59
2021/11/22 01:49:44;;;;;;;1.85;0.40;;;14.90;76.70;;;;;;4059079;29;20056;-60
2021/11/22 01:52:08;;;;;;;0.63;0.40;;;14.80;76.20;;;;;;4059389;29;20052;-61
2021/11/22 01:54:30;;;;;;;3.17;0.82;;;14.80;76.10;;;;;;4059751;29;20082;-59
2021/11/22 01:56:54;;;;;;;2.20;0.55;;;14.80;76.50;;;;;;4059938;29;20524;-61
2021/11/22 01:59:17;;;;;;;4.32;0.57;;;14.80;76.40;;;;;;4061669;29;20067;-60
2021/11/22 02:01:39;;;;;;;3.20;0.77;;;14.80;76.50;;;;;;4063010;29;20056;-59
2021/11/22 02:04:03;;;;;;;2.15;0.77;;;14.80;76.50;;;;;;4062964;29;20059;-60
2021/11/22 02:06:25;;;;;;;1.83;0.90;;;14.80;76.90;;;;;;4063066;29;20083;-60
2021/11/22 02:08:48;;;;;;;6.35;0.70;;;14.80;77.50;;;;;;4062604;29;20048;-61
2021/11/22 02:11:12;;;;;;;1.45;0.40;;;14.80;76.80;;;;;;4063021;29;20060;-60
2021/11/22 02:13:35;;;;;;;2.20;0.52;;;14.70;76.80;;;;;;4062713;29;20131;-60
2021/11/22 02:15:58;;;;;;;2.38;0.80;;;14.70;76.00;;;;;;4062578;29;20058;-60
2021/11/22 02:18:20;;;;;;;3.55;0.90;;;14.70;76.00;;;;;;4062024;29;20072;-60
2021/11/22 02:20:44;;;;;;;1.95;0.40;;;14.70;76.20;;;;;;4062937;29;20497;-60
2021/11/22 02:23:07;;;;;;;2.97;0.40;;;14.70;75.30;;;;;;4062421;29;20048;-60
2021/11/22 02:25:31;;;;;;;1.15;0.60;;;14.70;75.20;;;;;;4062640;29;20119;-61
2021/11/22 02:27:53;;;;;;;6.35;1.15;;;14.70;75.80;;;;;;4062649;29;20496;-60
2021/11/22 02:30:18;;;;;;;2.97;0.55;;;14.70;75.70;;;;;;4062661;29;20052;-60
2021/11/22 02:32:42;;;;;;;2.58;0.70;;;14.70;75.70;;;;;;4062334;29;20052;-60
2021/11/22 02:35:06;;;;;;;3.20;0.70;;;14.60;75.90;;;;;;4062187;29;20095;-60
2021/11/22 02:37:29;;;;;;;2.42;1.05;;;14.60;76.20;;;;;;4062081;29;20866;-60
2021/11/22 02:39:51;;;;;;;1.88;0.60;;;14.70;75.60;;;;;;4062230;29;20147;-60
2021/11/22 02:42:14;;;;;;;5.82;0.77;;;14.60;75.90;;;;;;4062188;29;20151;-60
2021/11/22 02:44:38;;;;;;;2.90;1.10;;;14.60;76.20;;;;;;4062893;29;20063;-60
2021/11/22 02:47:00;;;;;;;2.80;0.45;;;14.60;76.50;;;;;;4062227;29;20044;-60
2021/11/22 02:49:22;;;;;;;3.80;0.63;;;14.60;77.10;;;;;;4062050;29;20150;-61
2021/11/22 02:51:44;;;;;;;1.92;0.47;;;14.60;77.50;;;;;;4062948;29;20056;-60
2021/11/22 02:54:07;;;;;;;4.35;0.60;;;14.60;77.70;;;;;;4062062;29;20051;-60
2021/11/22 02:56:31;;;;;;;1.95;0.40;;;14.60;78.10;;;;;;4062222;29;20147;-60
2021/11/22 02:58:53;;;;;;;1.05;0.35;;;14.60;78.50;;;;;;4061869;29;20052;-60
2021/11/22 03:01:15;;;;;;;1.33;0.40;;;14.60;78.70;;;;;;4062029;29;20056;-60
2021/11/22 03:03:38;;;;;;;1.48;0.38;;;14.60;78.90;;;;;;4062042;29;20806;-60
2021/11/22 03:06:09;;;;;;;1.73;0.50;;;14.60;78.80;;;;;;4062265;29;20048;-60
2021/11/22 03:08:32;;;;;;;0.63;0.40;;;14.60;78.60;;;;;;4062210;29;20108;-60
2021/11/22 03:10:56;;;;;;;2.83;0.60;;;14.60;79.30;;;;;;4061363;29;20062;-60
2021/11/22 03:13:18;;;;;;;2.38;0.45;;;14.60;79.10;;;;;;4061749;29;20115;-60
2021/11/22 03:15:40;;;;;;;1.10;0.70;;;14.60;79.30;;;;;;4061994;29;20485;-59
2021/11/22 03:18:02;;;;;;;3.13;0.70;;;14.60;79.40;;;;;;4062475;29;20210;-60
2021/11/22 03:20:24;;;;;;;6.32;0.95;;;14.60;79.30;;;;;;4062379;29;20090;-60
2021/11/22 03:22:48;;;;;;;3.78;0.70;;;14.60;79.40;;;;;;4061700;29;20056;-59
2021/11/22 03:25:12;;;;;;;1.45;0.60;;;14.60;79.40;;;;;;4061901;29;20048;-59
2021/11/22 03:27:35;;;;;;;5.35;0.50;;;14.60;79.40;;;;;;4061609;29;20576;-59
2021/11/22 03:29:57;;;;;;;1.75;0.50;;;14.60;79.40;;;;;;4061672;29;20403;-60
2021/11/22 03:32:20;;;;;;;4.68;1.00;;;14.60;79.70;;;;;;4061280;29;20135;-59
2021/11/22 03:34:42;;;;;;;5.88;0.60;;;14.60;79.50;;;;;;4060420;29;20067;-60
2021/11/22 03:37:05;;;;;;;3.13;0.60;;;14.50;79.50;;;;;;4061330;29;20055;-60
2021/11/22 03:39:28;;;;;;;2.42;0.50;;;14.50;79.80;;;;;;4061589;29;20051;-59
2021/11/22 03:41:51;;;;;;;1.73;0.40;;;14.50;79.80;;;;;;4061440;29;20052;-58
2021/11/22 03:44:15;;;;;;;3.42;0.80;;;14.50;79.90;;;;;;4061272;29;20066;-59
2021/11/22 03:46:38;;;;;;;4.22;0.80;;;14.50;80.00;;;;;;4061246;29;20052;-59
2021/11/22 03:49:01;;;;;;;2.55;0.85;;;14.50;79.90;;;;;;4060910;29;20506;-59
2021/11/22 03:51:23;;;;;;;5.18;1.45;;;14.50;79.90;;;;;;4061504;29;20111;-58
2021/11/22 03:53:45;;;;;;;27.35;5.60;;;14.50;79.90;;;;;;4061199;29;20051;-59
2021/11/22 03:56:08;;;;;;;29.88;5.35;;;14.50;79.90;;;;;;4060832;29;20449;-59
2021/11/22 03:58:30;;;;;;;15.30;3.35;;;14.50;79.80;;;;;;4060944;29;20115;-59
2021/11/22 04:00:53;;;;;;;35.58;7.03;;;14.50;80.00;;;;;;4060906;29;20044;-59
2021/11/22 04:03:16;;;;;;;11.35;2.08;;;14.50;80.00;;;;;;4060732;29;20063;-59
2021/11/22 04:05:38;;;;;;;4.57;1.10;;;14.50;81.00;;;;;;4060819;29;20063;-59
2021/11/22 04:08:00;;;;;;;2.13;0.68;;;14.50;80.40;;;;;;4061110;29;20136;-60
2021/11/22 04:10:22;;;;;;;4.00;0.70;;;14.40;80.20;;;;;;4060915;29;20052;-60
2021/11/22 04:12:46;;;;;;;1.83;0.40;;;14.50;80.20;;;;;;4060699;29;20056;-59
2021/11/22 04:15:08;;;;;;;3.47;0.50;;;14.50;80.30;;;;;;4060723;29;20052;-59
2021/11/22 04:17:35;;;;;;;1.77;0.50;;;14.40;80.10;;;;;;4045677;29;20524;-60
2021/11/22 04:19:57;;;;;;;7.53;1.00;;;14.50;80.20;;;;;;4060385;29;20063;-59
2021/11/22 04:22:19;;;;;;;2.58;0.80;;;14.40;80.20;;;;;;4059831;29;20040;-59
2021/11/22 04:24:42;;;;;;;0.93;0.50;;;14.40;80.20;;;;;;4060731;29;20411;-60
2021/11/22 04:27:08;;;;;;;1.55;0.65;;;14.40;80.20;;;;;;4060596;29;20408;-59
2021/11/22 04:29:30;;;;;;;2.30;0.50;;;14.40;80.20;;;;;;4060516;29;20055;-59
2021/11/22 04:31:52;;;;;;;2.20;0.60;;;14.40;80.30;;;;;;4060450;29;20064;-59
2021/11/22 04:34:15;;;;;;;0.88;0.50;;;14.40;80.20;;;;;;4060517;29;20051;-59
2021/11/22 04:36:37;;;;;;;3.90;0.70;;;14.40;80.10;;;;;;4060861;29;20079;-59
2021/11/22 04:38:59;;;;;;;2.97;0.80;;;14.40;80.20;;;;;;4060711;29;20071;-59
2021/11/22 04:41:24;;;;;;;4.10;0.80;;;14.40;80.30;;;;;;4060211;29;20401;-59
2021/11/22 04:43:46;;;;;;;1.40;0.55;;;14.40;80.20;;;;;;4060445;29;20059;-59
2021/11/22 04:46:08;;;;;;;2.92;0.95;;;14.40;80.50;;;;;;4051969;29;20079;-59
2021/11/22 04:48:30;;;;;;;3.00;1.10;;;14.40;80.10;;;;;;4060405;29;20059;-60
2021/11/22 04:50:54;;;;;;;9.20;1.73;;;14.40;81.20;;;;;;4060344;29;20475;-59
2021/11/22 04:53:16;;;;;;;2.80;0.60;;;14.40;82.10;;;;;;4060200;29;20468;-58
2021/11/22 04:55:38;;;;;;;5.38;2.00;;;14.60;82.10;;;;;;4060388;29;20052;-60
2021/11/22 04:58:01;;;;;;;5.68;1.65;;;14.70;81.60;;;;;;4060267;29;20047;-59
2021/11/22 05:00:24;;;;;;;4.72;1.20;;;14.80;81.90;;;;;;4059892;29;20405;-59
2021/11/22 05:02:47;;;;;;;4.05;0.95;;;14.80;80.60;;;;;;4060156;29;20052;-59
2021/11/22 05:05:09;;;;;;;2.10;0.85;;;14.90;80.20;;;;;;4060213;29;20485;-59
2021/11/22 05:07:33;;;;;;;2.28;0.60;;;14.90;80.20;;;;;;4060429;29;20056;-59
2021/11/22 05:09:55;;;;;;;1.67;0.55;;;14.90;80.20;;;;;;4059426;29;22185;-59
2021/11/22 05:12:17;;;;;;;4.18;0.50;;;15.00;79.80;;;;;;4059739;29;20067;-59
2021/11/22 05:14:39;;;;;;;1.98;0.82;;;14.90;79.60;;;;;;4059730;29;20079;-59
2021/11/22 05:17:01;;;;;;;1.05;0.30;;;14.90;79.30;;;;;;4060016;29;20051;-59
2021/11/22 05:19:29;;;;;;;3.58;0.75;;;14.90;79.00;;;;;;4060154;29;20056;-59
2021/11/22 05:21:51;;;;;;;3.92;1.38;;;14.90;78.50;;;;;;4059735;29;20397;-59
2021/11/22 05:24:15;;;;;;;3.20;0.50;;;14.90;78.50;;;;;;4059681;29;20052;-59
2021/11/22 05:26:38;;;;;;;2.05;0.50;;;14.80;78.40;;;;;;4060160;29;20067;-60
2021/11/22 05:29:01;;;;;;;3.95;0.93;;;14.80;78.70;;;;;;4059878;29;21018;-59
2021/11/22 05:31:24;;;;;;;3.03;0.75;;;14.70;78.80;;;;;;4059596;29;20067;-60
2021/11/22 05:33:46;;;;;;;2.75;1.33;;;14.60;79.00;;;;;;4059693;29;20044;-59
2021/11/22 05:36:08;;;;;;;1.63;0.40;;;14.60;79.30;;;;;;4060990;29;20056;-59
2021/11/22 05:38:30;;;;;;;9.55;0.77;;;14.50;79.30;;;;;;4060179;29;20111;-59
2021/11/22 05:40:53;;;;;;;1.10;0.50;;;14.50;80.40;;;;;;4059933;29;20067;-59
2021/11/22 05:43:16;;;;;;;1.30;0.50;;;14.50;79.60;;;;;;4060381;29;20051;-59
2021/11/22 05:45:39;;;;;;;2.00;0.65;;;14.40;79.40;;;;;;4060226;29;20051;-59
2021/11/22 05:48:01;;;;;;;3.25;0.60;;;14.40;81.50;;;;;;4059606;29;20368;-60
2021/11/22 05:50:23;;;;;;;3.75;0.60;;;14.50;81.80;;;;;;4059770;29;20059;-59
2021/11/22 05:52:51;;;;;;;1.50;0.82;;;14.60;81.30;;;;;;4059743;29;20140;-59
2021/11/22 05:55:16;;;;;;;3.35;0.68;;;14.70;81.10;;;;;;4059169;29;20166;-59
2021/11/22 05:57:39;;;;;;;5.03;1.13;;;14.80;80.80;;;;;;4059679;29;20060;-59
2021/11/22 06:00:01;;;;;;;3.83;1.10;;;14.80;80.40;;;;;;4059549;29;20048;-60
2021/11/22 06:02:33;;;;;;;2.88;1.55;;;14.90;80.40;;;;;;4059732;29;20079;-58
2021/11/22 06:04:55;;;;;;;143.50;43.88;;;14.90;80.30;;;;;;4059708;29;20052;-59
2021/11/22 06:07:18;;;;;;;162.50;53.47;;;14.90;80.20;;;;;;4059678;29;20056;-60
2021/11/22 06:09:40;;;;;;;129.43;42.03;;;14.90;80.10;;;;;;4059491;29;20155;-59
2021/11/22 06:12:02;;;;;;;117.70;40.42;;;14.90;79.80;;;;;;4059679;29;20095;-59
2021/11/22 06:14:26;;;;;;;138.93;45.25;;;14.90;80.00;;;;;;4059249;29;20511;-58
2021/11/22 06:16:48;;;;;;;89.43;31.40;;;14.90;80.30;;;;;;4059204;29;20040;-60
2021/11/22 06:19:10;;;;;;;58.92;20.13;;;15.00;80.10;;;;;;4058798;29;20056;-59
2021/11/22 06:21:32;;;;;;;23.55;9.45;;;15.00;79.60;;;;;;4059662;29;20472;-59
2021/11/22 06:23:55;;;;;;;26.42;8.13;;;15.10;79.30;;;;;;4059677;29;20408;-59
2021/11/22 06:26:17;;;;;;;93.38;31.13;;;15.10;79.10;;;;;;4059992;29;20070;-59
2021/11/22 06:28:39;;;;;;;236.35;92.45;;;15.20;79.00;;;;;;4059206;29;20056;-59
2021/11/22 06:31:03;;;;;;;67.75;23.00;;;15.20;79.20;;;;;;4059547;29;20052;-60
2021/11/22 06:33:25;;;;;;;128.45;45.67;;;15.20;78.80;;;;;;4059162;29;20582;-60
2021/11/22 06:35:47;;;;;;;189.40;66.18;;;15.20;78.80;;;;;;4059215;29;20143;-59
2021/11/22 06:38:09;;;;;;;40.20;14.05;;;15.20;78.80;;;;;;4059465;29;20106;-60
2021/11/22 06:40:34;;;;;;;62.47;21.13;;;15.20;78.70;;;;;;4059318;29;20052;-59
2021/11/22 06:42:57;;;;;;;175.75;49.72;;;15.30;78.70;;;;;;4050585;29;20098;-60
2021/11/22 06:45:19;;;;;;;183.43;52.03;;;15.30;78.50;;;;;;4060988;29;20610;-61
2021/11/22 06:47:42;;;;;;;77.47;23.05;;;15.30;78.30;;;;;;4062242;29;20058;-60
2021/11/22 06:50:06;;;;;;;60.53;15.75;;;15.30;78.10;;;;;;4061679;29;20078;-60
2021/11/22 06:52:28;;;;;;;12.43;3.72;;;15.40;78.60;;;;;;4061855;29;20051;-60
2021/11/22 06:54:51;;;;;;;7.95;2.97;;;15.40;78.60;;;;;;4061552;29;20051;-60
2021/11/22 06:57:14;;;;;;;7.93;2.55;;;15.40;78.40;;;;;;4062445;29;20063;-60
2021/11/22 06:59:36;;;;;;;4.97;2.03;;;15.40;78.10;;;;;;4061725;29;20159;-62
2021/11/22 07:01:58;;;;;;;4.30;2.00;;;15.40;78.00;;;;;;4060880;29;20719;-62
2021/11/22 07:04:22;;;;;;;6.80;1.73;;;15.40;78.10;;;;;;4060585;29;20059;-62
2021/11/22 07:06:44;;;;;;;6.75;2.10;;;15.40;77.80;;;;;;4060055;29;20048;-62
2021/11/22 07:09:06;;;;;;;4.50;2.00;;;15.30;77.80;;;;;;4060528;29;20052;-61
2021/11/22 07:11:28;;;;;;;8.80;3.90;;;15.30;78.00;;;;;;4060474;29;20822;-62
2021/11/22 07:13:51;;;;;;;27.92;8.05;;;15.30;78.20;;;;;;4060618;29;20059;-62
2021/11/22 07:16:16;;;;;;;40.83;10.93;;;15.20;78.40;;;;;;4060189;29;20054;-62
2021/11/22 07:18:38;;;;;;;42.75;11.30;;;15.20;78.50;;;;;;4060321;29;20075;-62
2021/11/22 07:21:02;;;;;;;41.58;11.98;;;15.20;78.60;;;;;;4059623;29;20408;-62
2021/11/22 07:23:25;;;;;;;42.83;12.27;;;15.20;78.50;;;;;;4060165;29;20052;-62
2021/11/22 07:25:47;;;;;;;35.20;10.77;;;15.10;78.70;;;;;;4059397;29;20127;-62
2021/11/22 07:28:09;;;;;;;18.20;4.55;;;15.00;78.50;;;;;;4059720;29;20075;-62
2021/11/22 07:30:31;;;;;;;6.18;2.55;;;15.00;78.70;;;;;;4060156;29;20127;-60
2021/11/22 07:32:54;;;;;;;4.85;2.25;;;15.00;78.80;;;;;;4059913;29;20089;-60
2021/11/22 07:35:16;;;;;;;3.65;1.77;;;14.90;78.60;;;;;;4060123;29;20393;-60
2021/11/22 07:37:40;;;;;;;9.10;2.00;;;14.90;78.60;;;;;;4059937;29;20051;-59
2021/11/22 07:40:03;;;;;;;4.63;1.75;;;14.90;78.50;;;;;;4060130;29;20083;-60
2021/11/22 07:42:29;;;;;;;4.45;2.38;;;14.80;79.70;;;;;;4058832;29;20498;-60
2021/11/22 07:44:51;;;;;;;5.22;2.20;;;14.90;80.20;;;;;;4059420;29;20059;-60
2021/11/22 07:47:13;;;;;;;10.15;3.53;;;14.90;79.70;;;;;;4059609;29;20060;-61
2021/11/22 07:49:35;;;;;;;5.18;1.67;;;15.00;79.30;;;;;;4058307;29;20092;-62
2021/11/22 07:51:57;;;;;;;2.58;1.63;;;15.10;78.90;;;;;;4059672;29;20977;-62
2021/11/22 07:54:21;;;;;;;4.03;1.02;;;15.10;79.00;;;;;;4059903;29;20048;-62
2021/11/22 07:56:43;;;;;;;1.77;0.88;;;15.20;78.80;;;;;;4059918;29;20496;-61
2021/11/22 07:59:05;;;;;;;2.47;1.30;;;15.20;78.30;;;;;;4059369;29;20479;-62
2021/11/22 08:01:27;;;;;;;4.40;1.48;;;15.40;78.10;;;;;;4058580;29;20075;-62
2021/11/22 08:03:50;;;;;;;5.28;1.75;;;15.40;78.00;;;;;;4059141;29;20129;-62
2021/11/22 08:06:12;;;;;;;6.35;1.75;;;15.40;77.50;;;;;;4044635;29;20060;-61
2021/11/22 08:08:37;;;;;;;5.90;1.75;;;15.50;77.40;;;;;;4058982;29;20062;-62
2021/11/22 08:11:29;;;;;;;5.82;2.33;;;15.40;77.40;;;;;;4059377;29;20059;-60
2021/11/22 08:13:51;;;;;;;3.83;2.17;;;15.40;77.70;;;;;;4059504;29;20127;-61
2021/11/22 08:16:13;;;;;;;3.63;1.67;;;15.40;78.10;;;;;;4059625;29;20060;-60
2021/11/22 08:18:37;;;;;;;4.65;2.00;;;15.40;78.40;;;;;;4059012;29;20056;-61
2021/11/22 08:20:59;;;;;;;5.72;2.28;;;15.30;78.40;;;;;;4059717;29;20052;-61
2021/11/22 08:23:22;;;;;;;3.13;1.70;;;15.30;78.30;;;;;;4060452;29;20167;-61
2021/11/22 08:25:44;;;;;;;3.08;1.90;;;15.30;78.40;;;;;;4059940;29;22846;-63
2021/11/22 08:28:08;;;;;;;4.65;1.60;;;15.20;78.40;;;;;;4058666;29;20056;-61
2021/11/22 08:30:33;;;;;;;4.20;2.05;;;15.20;78.20;;;;;;4060542;29;20503;-62
2021/11/22 08:32:57;;;;;;;2.88;2.20;;;15.10;78.40;;;;;;4061473;29;20412;-61
2021/11/22 08:35:20;;;;;;;5.05;1.70;;;15.10;78.50;;;;;;4061128;29;20063;-61
2021/11/22 08:37:43;;;;;;;3.65;2.33;;;15.10;78.70;;;;;;4060340;29;20056;-61
2021/11/22 08:40:09;;;;;;;5.35;2.20;;;15.00;78.70;;;;;;4060668;29;20051;-61
2021/11/22 08:42:31;;;;;;;8.00;2.78;;;15.00;78.90;;;;;;4060668;29;20052;-62
2021/11/22 08:44:54;;;;;;;10.50;2.97;;;15.00;79.10;;;;;;4060941;29;20185;-61
2021/11/22 08:47:16;;;;;;;6.50;2.78;;;14.90;79.10;;;;;;4060304;29;20059;-61
2021/11/22 08:49:42;;;;;;;7.75;2.30;;;14.90;79.30;;;;;;4059452;29;20052;-61
2021/11/22 08:52:05;;;;;;;5.30;2.28;;;14.90;79.40;;;;;;4060354;29;20372;-60
2021/11/22 08:54:29;;;;;;;2.72;1.92;;;14.80;79.20;;;;;;4060439;29;20067;-61
2021/11/22 08:56:51;;;;;;;4.20;2.70;;;14.80;79.40;;;;;;4060183;29;20150;-60
2021/11/22 08:59:14;;;;;;;7.32;3.67;;;14.80;79.30;;;;;;4060321;29;20048;-60
2021/11/22 09:01:39;;;;;;;22.77;7.80;;;14.70;79.20;;;;;;4059958;29;20448;-61
2021/11/22 09:04:01;;;;;;;6.95;2.65;;;14.70;79.50;;;;;;4060659;29;20357;-60
2021/11/22 09:06:23;;;;;;;6.15;2.38;;;14.60;79.50;;;;;;4060289;29;20059;-60
2021/11/22 09:08:46;;;;;;;2.38;1.42;;;14.60;79.40;;;;;;4059114;29;20048;-60
2021/11/22 09:11:08;;;;;;;3.33;1.38;;;14.50;80.20;;;;;;4059985;29;20072;-60
2021/11/22 09:13:30;;;;;;;9.52;2.83;;;14.50;80.70;;;;;;4059741;29;20385;-60
2021/11/22 09:15:53;;;;;;;7.72;3.00;;;14.60;81.60;;;;;;4059666;29;20127;-60
2021/11/22 09:18:16;;;;;;;6.45;2.92;;;14.70;81.50;;;;;;4059660;29;20138;-62
2021/11/22 09:20:39;;;;;;;6.80;1.42;;;14.70;80.60;;;;;;4059970;29;20055;-60
2021/11/22 09:23:03;;;;;;;10.23;2.67;;;14.90;80.20;;;;;;4060028;29;20048;-60
2021/11/22 09:25:26;;;;;;;2.85;1.15;;;14.90;79.30;;;;;;4059883;29;20051;-61
2021/11/22 09:27:50;;;;;;;4.07;1.25;;;15.00;78.80;;;;;;4059630;29;20448;-60
2021/11/22 09:30:12;;;;;;;5.78;2.13;;;15.00;78.30;;;;;;4059679;29;20138;-61
2021/11/22 09:32:34;;;;;;;13.68;5.43;;;15.10;78.10;;;;;;4058766;29;20055;-61
2021/11/22 09:34:57;;;;;;;4.95;2.40;;;15.00;77.90;;;;;;4057659;29;20107;-61
2021/11/22 09:37:20;;;;;;;7.80;3.08;;;15.10;77.60;;;;;;4059247;29;20059;-61
2021/11/22 09:39:43;;;;;;;3.50;1.50;;;15.10;77.40;;;;;;4059976;29;20052;-63
2021/11/22 09:42:06;;;;;;;5.90;2.00;;;15.10;77.30;;;;;;4059845;29;20056;-63
2021/11/22 09:44:28;;;;;;;6.47;1.95;;;15.10;77.10;;;;;;4059400;29;20088;-63
2021/11/22 09:46:52;;;;;;;3.60;1.63;;;15.20;77.00;;;;;;4059670;29;20055;-63
2021/11/22 09:49:14;;;;;;;1.67;0.98;;;15.10;76.50;;;;;;4059787;29;20063;-64
2021/11/22 09:51:37;;;;;;;4.50;1.35;;;15.10;76.30;;;;;;4059762;29;20685;-63
2021/11/22 09:54:03;;;;;;;3.90;1.20;;;15.10;76.20;;;;;;4058990;29;20076;-64
2021/11/22 09:56:25;;;;;;;3.30;0.77;;;15.10;76.80;;;;;;4059275;29;20205;-64
2021/11/22 09:58:47;;;;;;;1.20;0.60;;;15.10;76.50;;;;;;4059351;29;20107;-64
2021/11/22 10:01:15;;;;;;;1.77;0.70;;;15.00;76.50;;;;;;4059373;29;20087;-63
2021/11/22 10:03:37;;;;;;;2.75;0.60;;;15.00;76.50;;;;;;4059790;29;20048;-63
2021/11/22 10:06:01;;;;;;;6.13;1.20;;;14.90;76.80;;;;;;4059086;29;20525;-63
2021/11/22 10:08:26;;;;;;;2.10;1.20;;;14.90;76.90;;;;;;4059064;29;20119;-63
2021/11/22 10:10:51;;;;;;;5.68;1.02;;;14.90;77.10;;;;;;4058779;29;20064;-63
2021/11/22 10:13:24;;;;;;;4.95;1.10;;;14.90;77.10;;;;;;4059048;29;20056;-63
2021/11/22 10:15:46;;;;;;;4.03;0.90;;;14.80;77.80;;;;;;4058674;29;20048;-63
2021/11/22 10:18:17;;;;;;;1.17;1.08;;;14.80;77.70;;;;;;4059383;29;20075;-63
2021/11/22 10:20:39;;;;;;;2.55;1.08;;;14.90;77.50;;;;;;4062175;29;20078;-62
2021/11/22 10:23:04;;;;;;;2.42;1.13;;;14.90;77.70;;;;;;4063011;29;20067;-64
2021/11/22 10:25:34;;;;;;;3.05;1.45;;;15.00;77.40;;;;;;4062631;29;20079;-63
2021/11/22 10:28:01;;;;;;;1.70;1.00;;;15.10;77.10;;;;;;4062443;29;20052;-62
2021/11/22 10:30:25;;;;;;;3.60;1.52;;;15.20;76.80;;;;;;4062673;29;20056;-63
2021/11/22 10:32:49;;;;;;;4.72;1.08;;;15.30;76.30;;;;;;4063124;29;20048;-63
2021/11/22 10:35:15;;;;;;;1.75;1.00;;;15.30;75.80;;;;;;4063779;29;20896;-62
2021/11/22 10:37:56;;;;;;;3.75;1.40;;;15.40;75.30;;;;;;4061849;29;20048;-62
2021/11/22 10:40:17;;;;;;;3.42;1.52;;;15.40;74.40;;;;;;4062913;29;20052;-63
2021/11/22 10:42:41;;;;;;;1.73;1.50;;;15.40;75.20;;;;;;4062776;29;20080;-62
2021/11/22 10:45:04;;;;;;;5.07;1.60;;;15.40;75.10;;;;;;4062679;29;20108;-62
2021/11/22 10:47:26;;;;;;;2.58;1.50;;;15.30;75.00;;;;;;4062506;29;20056;-63
2021/11/22 10:49:53;;;;;;;6.55;1.08;;;15.40;74.70;;;;;;4061684;29;20056;-62
2021/11/22 10:52:25;;;;;;;2.67;0.90;;;15.30;74.80;;;;;;4062788;29;20052;-62
2021/11/22 10:54:58;;;;;;;5.45;1.15;;;15.30;74.80;;;;;;4061829;29;20083;-63
2021/11/22 10:57:21;;;;;;;8.27;0.80;;;15.30;74.40;;;;;;4062471;29;20055;-63
2021/11/22 10:59:44;;;;;;;2.05;0.63;;;15.20;74.90;;;;;;4062735;29;20059;-63
2021/11/22 11:02:06;;;;;;;4.60;0.75;;;15.20;75.40;;;;;;4062185;29;20048;-63
2021/11/22 11:04:31;;;;;;;1.88;0.90;;;15.20;75.70;;;;;;4062611;29;20572;-63
2021/11/22 11:06:59;;;;;;;4.65;0.68;;;15.20;75.90;;;;;;4062508;29;20463;-62
2021/11/22 11:09:25;;;;;;;0.82;0.70;;;15.10;75.90;;;;;;4062224;29;20150;-63
2021/11/22 11:11:49;;;;;;;1.38;0.60;;;15.10;76.40;;;;;;4061968;29;20052;-62
2021/11/22 11:14:13;;;;;;;2.78;1.17;;;15.10;76.40;;;;;;4061204;29;20488;-63
2021/11/22 11:16:37;;;;;;;1.05;0.68;;;15.10;76.20;;;;;;4061561;29;20047;-60
2021/11/22 11:19:01;;;;;;;2.85;0.80;;;15.10;75.90;;;;;;4061860;29;20096;-61
2021/11/22 11:21:28;;;;;;;5.22;0.80;;;15.00;76.10;;;;;;4061445;29;20059;-61
2021/11/22 11:23:50;;;;;;;3.33;0.88;;;15.00;76.60;;;;;;4061966;29;20052;-60
2021/11/22 11:26:12;;;;;;;2.63;1.00;;;15.00;77.30;;;;;;4062024;29;20150;-61
2021/11/22 11:28:35;;;;;;;2.33;0.75;;;15.00;77.50;;;;;;4061586;29;20067;-62
2021/11/22 11:30:57;;;;;;;0.60;0.52;;;15.00;77.00;;;;;;4060921;29;20055;-62
2021/11/22 11:33:20;;;;;;;4.80;0.90;;;15.00;75.90;;;;;;4061369;29;20079;-63
2021/11/22 11:35:53;;;;;;;1.58;0.90;;;15.00;76.00;;;;;;4061394;29;20441;-63
2021/11/22 11:38:22;;;;;;;5.40;0.90;;;14.90;76.60;;;;;;4061545;29;20139;-63
2021/11/22 11:41:04;;;;;;;3.10;0.77;;;14.90;76.00;;;;;;4061333;29;20083;-63
2021/11/22 11:43:48;;;;;;;2.10;0.68;;;14.90;75.20;;;;;;4061577;29;20475;-63
2021/11/22 11:46:12;;;;;;;1.90;0.90;;;14.80;75.00;;;;;;4061671;29;20052;-63
2021/11/22 11:48:56;;;;;;;1.23;0.88;;;14.80;76.90;;;;;;4061512;29;20560;-62
2021/11/22 11:51:20;;;;;;;5.05;1.15;;;14.70;76.30;;;;;;4060871;29;20048;-63
2021/11/22 11:54:17;;;;;;;4.53;1.00;;;14.70;77.50;;;;;;4061716;29;20079;-63
2021/11/22 11:56:42;;;;;;;0.65;0.65;;;14.70;76.50;;;;;;4061329;29;20048;-63
2021/11/22 11:59:19;;;;;;;2.28;1.40;;;14.60;77.20;;;;;;4061844;29;20421;-63
2021/11/22 12:02:02;;;;;;;3.17;1.10;;;14.70;77.50;;;;;;4061938;29;20059;-63
2021/11/22 12:04:28;;;;;;;3.13;0.77;;;14.60;76.90;;;;;;4061365;29;20107;-63
2021/11/22 12:06:52;;;;;;;3.53;0.70;;;14.60;76.50;;;;;;4061103;29;20155;-63
2021/11/22 12:09:42;;;;;;;1.08;0.70;;;14.60;73.70;;;;;;4061376;29;20059;-63
2021/11/22 12:12:32;;;;;;;0.90;0.50;;;14.60;73.80;;;;;;4019794;29;20075;-61
2021/11/22 12:14:57;;;;;;;6.25;1.58;;;14.60;77.30;;;;;;4061452;29;20131;-61
2021/11/22 12:17:43;;;;;;;;;;;14.60;78.20;;;;;;4061377;29;20354;-62
2021/11/22 12:20:09;;;;;;;5.45;0.70;;;14.60;78.20;;;;;;4060072;29;19927;-61
2021/11/22 12:22:36;;;;;;;5.00;1.80;;;14.60;79.20;;;;;;4046292;29;20064;-61
2021/11/22 12:24:58;;;;;;;1.08;0.40;;;14.60;78.30;;;;;;4061056;29;20044;-61
2021/11/22 12:27:37;;;;;;;1.80;0.60;;;14.60;77.90;;;;;;4060556;29;20492;-60
2021/11/22 12:30:02;;;;;;;4.93;1.27;;;14.60;77.30;;;;;;4061830;29;20063;-60